createdAt,value
2023-04-15T00:01:49.858Z,49.89
2023-04-15T00:04:17.241Z,51.11
2023-04-15T00:06:51.724Z,51.02
2023-04-15T00:09:19.795Z,51.04
2023-04-15T00:11:47.015Z,50.76
2023-04-15T00:14:14.287Z,50.21
2023-04-15T00:16:41.689Z,50.08
2023-04-15T00:19:08.771Z,49.98
2023-04-15T00:21:36.039Z,49.95
2023-04-15T00:24:03.977Z,49.85
2023-04-15T00:26:31.088Z,49.76
2023-04-15T00:28:58.730Z,49.33
2023-04-15T00:31:26.169Z,49.33
2023-04-15T00:33:53.366Z,49.71
2023-04-15T00:36:23.552Z,49.70
2023-04-15T00:38:50.847Z,49.83
2023-04-15T00:41:19.533Z,50.35
2023-04-15T00:43:46.798Z,50.51
2023-04-15T00:46:17.869Z,50.96
2023-04-15T00:48:46.145Z,50.92
2023-04-15T00:51:16.333Z,51.15
2023-04-15T00:53:43.962Z,51.11
2023-04-15T00:56:11.087Z,50.94
2023-04-15T00:58:38.413Z,51.34
2023-04-15T01:01:05.739Z,51.88
2023-04-15T01:03:33.373Z,52.12
2023-04-15T01:06:03.765Z,52.17
2023-04-15T01:08:32.021Z,51.88
2023-04-15T01:11:01.799Z,50.18
2023-04-15T01:13:30.786Z,48.71
2023-04-15T01:15:58.326Z,47.86
2023-04-15T01:18:26.127Z,47.02
2023-04-15T01:20:53.503Z,46.28
2023-04-15T01:23:24.633Z,45.92
2023-04-15T01:25:53.650Z,45.40
2023-04-15T01:28:20.788Z,45.03
2023-04-15T01:30:48.719Z,44.78
2023-04-15T01:33:16.273Z,44.53
2023-04-15T01:35:44.659Z,44.36
2023-04-15T01:38:12.602Z,44.25
2023-04-15T01:40:41.032Z,44.27
2023-04-15T01:43:08.484Z,44.00
2023-04-15T01:45:35.518Z,44.25
2023-04-15T01:48:04.618Z,43.84
2023-04-15T01:50:31.686Z,43.88
2023-04-15T01:52:58.900Z,44.13
2023-04-15T01:55:26.320Z,44.09
2023-04-15T01:57:53.462Z,44.35
2023-04-15T02:00:22.501Z,44.23
2023-04-15T02:02:49.984Z,44.91
2023-04-15T02:05:17.130Z,45.27
2023-04-15T02:07:48.648Z,45.17
2023-04-15T02:10:16.925Z,45.15
2023-04-15T02:12:44.425Z,45.18
2023-04-15T02:15:12.014Z,45.72
2023-04-15T02:17:39.229Z,45.91
2023-04-15T02:20:11.646Z,46.52
2023-04-15T02:22:38.765Z,46.79
2023-04-15T02:25:06.374Z,46.96
2023-04-15T02:27:33.528Z,46.98
2023-04-15T02:30:00.760Z,47.17
2023-04-15T02:32:29.154Z,47.38
2023-04-15T02:34:56.456Z,47.52
2023-04-15T02:37:24.927Z,47.44
2023-04-15T02:39:52.127Z,47.82
2023-04-15T02:42:21.737Z,48.11
2023-04-15T02:44:50.183Z,48.40
2023-04-15T02:47:18.332Z,49.26
2023-04-15T02:49:45.556Z,48.05
2023-04-15T02:52:12.725Z,46.82
2023-04-15T02:54:39.920Z,46.30
2023-04-15T02:57:07.017Z,45.53
2023-04-15T02:59:34.483Z,45.42
2023-04-15T03:02:01.776Z,45.37
2023-04-15T03:04:30.312Z,45.21
2023-04-15T03:06:57.622Z,45.21
2023-04-15T03:09:25.986Z,44.96
2023-04-15T03:11:54.956Z,45.14
2023-04-15T03:14:22.839Z,45.05
2023-04-15T03:16:50.840Z,44.79
2023-04-15T03:19:18.920Z,44.95
2023-04-15T03:21:45.977Z,45.06
2023-04-15T03:24:14.140Z,45.53
2023-04-15T03:26:41.332Z,46.03
2023-04-15T03:29:15.309Z,46.29
2023-04-15T03:31:42.894Z,46.11
2023-04-15T03:34:09.977Z,46.59
2023-04-15T03:36:37.370Z,46.61
2023-04-15T03:39:04.558Z,47.19
2023-04-15T03:41:33.078Z,47.27
2023-04-15T03:44:00.381Z,47.14
2023-04-15T03:46:28.075Z,47.06
2023-04-15T03:48:55.217Z,46.89
2023-04-15T03:51:22.433Z,46.74
2023-04-15T03:53:49.472Z,45.83
2023-04-15T03:56:16.606Z,45.34
2023-04-15T03:58:43.791Z,45.44
2023-04-15T04:01:10.849Z,44.99
2023-04-15T04:03:38.094Z,44.87
2023-04-15T04:06:05.395Z,44.39
2023-04-15T04:08:32.614Z,44.07
2023-04-15T04:10:59.746Z,44.06
2023-04-15T04:13:26.835Z,43.54
2023-04-15T04:15:53.839Z,43.70
2023-04-15T04:18:21.122Z,43.59
2023-04-15T04:20:48.244Z,43.56
2023-04-15T04:23:15.412Z,43.61
2023-04-15T04:25:42.586Z,43.95
2023-04-15T04:28:09.763Z,44.22
2023-04-15T04:30:37.036Z,44.26
2023-04-15T04:33:04.219Z,44.28
2023-04-15T04:35:33.835Z,44.49
2023-04-15T04:38:01.802Z,44.40
2023-04-15T04:40:29.035Z,44.67
2023-04-15T04:42:56.381Z,44.50
2023-04-15T04:45:23.825Z,44.54
2023-04-15T04:47:51.012Z,44.49
2023-04-15T04:50:18.146Z,44.48
2023-04-15T04:52:45.434Z,44.60
2023-04-15T04:55:12.615Z,44.34
2023-04-15T04:57:39.845Z,44.27
2023-04-15T05:00:09.207Z,44.18
2023-04-15T05:02:36.996Z,44.16
2023-04-15T05:05:04.500Z,43.98
2023-04-15T05:07:31.982Z,42.84
2023-04-15T05:09:59.164Z,40.99
2023-04-15T05:12:26.389Z,39.58
2023-04-15T05:14:53.584Z,37.92
2023-04-15T05:17:20.971Z,36.53
2023-04-15T05:19:48.376Z,35.29
2023-04-15T05:22:15.630Z,36.36
2023-04-15T05:24:42.805Z,37.72
2023-04-15T05:27:11.778Z,37.99
2023-04-15T05:29:38.941Z,37.51
2023-04-15T05:32:06.350Z,38.23
2023-04-15T05:34:33.688Z,38.75
2023-04-15T05:37:00.894Z,39.34
2023-04-15T05:39:28.091Z,40.09
2023-04-15T05:41:55.169Z,40.81
2023-04-15T05:44:22.289Z,41.09
2023-04-15T05:46:49.307Z,41.88
2023-04-15T05:49:16.561Z,42.22
2023-04-15T05:51:43.621Z,42.59
2023-04-15T05:54:10.972Z,42.66
2023-04-15T05:56:38.044Z,42.34
2023-04-15T05:59:06.892Z,42.09
2023-04-15T06:01:34.525Z,42.06
2023-04-15T06:04:02.095Z,41.97
2023-04-15T06:06:29.282Z,41.84
2023-04-15T06:08:56.403Z,41.59
2023-04-15T06:11:23.485Z,41.44
2023-04-15T06:13:50.736Z,41.50
2023-04-15T06:16:17.772Z,41.29
2023-04-15T06:18:45.014Z,41.16
2023-04-15T06:21:12.065Z,40.92
2023-04-15T06:23:41.278Z,40.77
2023-04-15T06:26:08.735Z,40.54
2023-04-15T06:28:36.059Z,40.16
2023-04-15T06:31:03.757Z,40.09
2023-04-15T06:33:30.891Z,40.31
2023-04-15T06:35:58.111Z,39.35
2023-04-15T06:38:25.116Z,38.61
2023-04-15T06:40:52.626Z,38.26
2023-04-15T06:43:20.345Z,37.52
2023-04-15T06:45:47.593Z,37.62
2023-04-15T06:48:14.683Z,35.43
2023-04-15T06:50:41.956Z,35.30
2023-04-15T06:53:09.035Z,33.85
2023-04-15T06:55:36.094Z,34.49
2023-04-15T06:58:03.163Z,35.00
2023-04-15T07:00:30.690Z,35.18
2023-04-15T07:02:58.030Z,35.90
2023-04-15T07:05:25.588Z,36.99
2023-04-15T07:07:53.271Z,38.06
2023-04-15T07:10:20.556Z,38.40
2023-04-15T07:12:48.855Z,39.09
2023-04-15T07:15:16.027Z,39.96
2023-04-15T07:17:46.090Z,39.70
2023-04-15T07:20:13.359Z,38.97
2023-04-15T07:22:40.981Z,38.24
2023-04-15T07:25:09.199Z,38.68
2023-04-15T07:27:36.480Z,38.72
2023-04-15T07:30:03.814Z,40.00
2023-04-15T07:32:31.317Z,38.22
2023-04-15T07:34:58.541Z,37.02
2023-04-15T07:37:25.773Z,35.93
2023-04-15T07:39:53.317Z,36.61
2023-04-15T07:42:20.530Z,37.18
2023-04-15T07:44:47.703Z,37.78
2023-04-15T07:47:14.920Z,37.91
2023-04-15T07:49:43.681Z,37.06
2023-04-15T07:52:11.296Z,37.11
2023-04-15T07:54:38.365Z,37.02
2023-04-15T07:57:05.650Z,36.04
2023-04-15T07:59:33.705Z,36.01
2023-04-15T08:02:01.067Z,34.62
2023-04-15T08:04:28.699Z,34.15
2023-04-15T08:06:55.905Z,35.03
2023-04-15T08:09:23.005Z,35.45
2023-04-15T08:11:51.358Z,36.22
2023-04-15T08:14:18.470Z,36.37
2023-04-15T08:16:45.584Z,36.57
2023-04-15T08:19:12.758Z,38.46
2023-04-15T08:21:40.772Z,40.77
2023-04-15T08:24:08.288Z,41.82
2023-04-15T08:26:35.749Z,42.99
2023-04-15T08:29:03.065Z,43.17
2023-04-15T08:31:30.854Z,43.61
2023-04-15T08:33:58.274Z,44.03
2023-04-15T08:36:25.689Z,43.34
2023-04-15T08:38:52.787Z,42.49
2023-04-15T08:41:24.701Z,42.53
2023-04-15T08:43:58.109Z,42.26
2023-04-15T08:46:25.791Z,41.79
2023-04-15T08:48:55.766Z,42.17
2023-04-15T08:51:24.553Z,42.53
2023-04-15T08:53:52.801Z,43.07
2023-04-15T08:56:24.551Z,43.75
2023-04-15T08:58:52.749Z,43.79
2023-04-15T09:01:20.602Z,43.57
2023-04-15T09:03:50.716Z,43.85
2023-04-15T09:06:18.543Z,43.66
2023-04-15T09:08:46.102Z,43.82
2023-04-15T09:11:13.566Z,43.61
2023-04-15T09:13:40.725Z,44.43
2023-04-15T09:16:08.634Z,44.08
2023-04-15T09:18:39.914Z,43.50
2023-04-15T09:21:14.191Z,43.40
2023-04-15T09:23:54.430Z,43.34
2023-04-15T09:26:31.806Z,42.82
2023-04-15T09:29:15.502Z,41.72
2023-04-15T09:31:43.943Z,41.29
2023-04-15T09:34:12.040Z,41.39
2023-04-15T09:36:54.684Z,41.38
2023-04-15T09:39:23.473Z,41.25
2023-04-15T09:42:07.670Z,41.04
2023-04-15T09:44:35.191Z,41.19
2023-04-15T09:47:02.473Z,40.41
2023-04-15T09:49:29.885Z,39.99
2023-04-15T09:52:06.308Z,39.41
2023-04-15T09:54:36.485Z,38.96
2023-04-15T09:57:09.062Z,38.50
2023-04-15T09:59:36.448Z,38.53
2023-04-15T10:02:07.745Z,37.98
2023-04-15T10:04:40.000Z,37.89
2023-04-15T10:07:09.899Z,38.90
2023-04-15T10:09:38.941Z,39.32
2023-04-15T10:12:06.297Z,40.40
2023-04-15T10:14:35.788Z,40.68
2023-04-15T10:17:05.745Z,41.17
2023-04-15T10:19:34.696Z,40.77
2023-04-15T10:22:02.352Z,40.48
2023-04-15T10:24:34.355Z,41.00
2023-04-15T10:27:04.493Z,39.24
2023-04-15T10:29:31.880Z,39.42
2023-04-15T10:32:03.351Z,39.24
2023-04-15T10:34:31.428Z,39.47
2023-04-15T10:37:03.860Z,39.75
2023-04-15T10:39:37.764Z,40.72
2023-04-15T10:42:08.922Z,40.89
2023-04-15T10:44:41.789Z,39.95
2023-04-15T10:47:19.132Z,40.08
2023-04-15T10:49:58.175Z,40.78
2023-04-15T10:52:27.801Z,40.55
2023-04-15T10:55:19.408Z,40.34
2023-04-15T10:57:46.512Z,40.50
2023-04-15T11:00:14.865Z,40.51
2023-04-15T11:03:08.445Z,43.24
2023-04-15T11:05:42.515Z,49.16
2023-04-15T11:08:11.994Z,52.48
2023-04-15T11:10:39.798Z,54.66
2023-04-15T11:13:11.551Z,54.85
2023-04-15T11:15:41.830Z,54.56
2023-04-15T11:18:13.122Z,55.98
2023-04-15T11:20:42.256Z,58.40
2023-04-15T11:23:14.930Z,59.78
2023-04-15T11:25:43.504Z,59.38
2023-04-15T11:28:13.182Z,61.10
2023-04-15T11:30:41.111Z,58.52
2023-04-15T11:33:10.709Z,57.30
2023-04-15T11:35:38.609Z,59.22
2023-04-15T11:38:08.916Z,58.59
2023-04-15T11:40:36.586Z,57.68
2023-04-15T11:43:09.437Z,57.13
2023-04-15T11:45:38.591Z,55.93
2023-04-15T11:48:10.131Z,54.91
2023-04-15T11:50:40.905Z,54.31
2023-04-15T11:53:10.070Z,55.30
2023-04-15T11:55:50.645Z,54.21
2023-04-15T11:58:26.880Z,54.29
2023-04-15T12:00:59.031Z,55.08
2023-04-15T12:03:27.686Z,54.22
2023-04-15T12:06:11.810Z,54.21
2023-04-15T12:09:06.903Z,53.60
2023-04-15T12:11:43.000Z,53.29
2023-04-15T12:14:28.677Z,51.47
2023-04-15T12:17:00.539Z,50.14
2023-04-15T12:19:32.093Z,50.72
2023-04-15T12:22:04.350Z,50.25
2023-04-15T12:24:33.893Z,51.53
2023-04-15T12:27:04.995Z,51.27
2023-04-15T12:29:33.249Z,51.96
2023-04-15T12:32:22.180Z,51.82
2023-04-15T12:34:54.627Z,51.99
2023-04-15T12:37:22.628Z,52.30
2023-04-15T12:39:51.369Z,52.34
2023-04-15T12:42:19.941Z,52.28
2023-04-15T12:44:47.617Z,53.15
2023-04-15T12:47:15.589Z,54.81
2023-04-15T12:49:43.038Z,55.43
2023-04-15T12:52:10.983Z,55.69
2023-04-15T12:54:38.678Z,55.99
2023-04-15T12:57:07.427Z,55.01
2023-04-15T12:59:36.415Z,53.51
2023-04-15T13:02:04.913Z,52.71
2023-04-15T13:04:32.784Z,51.74
2023-04-15T13:07:00.781Z,51.38
2023-04-15T13:09:28.313Z,49.61
2023-04-15T13:11:57.752Z,48.32
2023-04-15T13:14:26.033Z,47.22
2023-04-15T13:16:54.196Z,45.85
2023-04-15T13:19:21.660Z,46.34
2023-04-15T13:21:48.974Z,46.70
2023-04-15T13:24:17.634Z,46.65
2023-04-15T13:26:45.034Z,46.40
2023-04-15T13:29:13.974Z,46.95
2023-04-15T13:31:41.296Z,48.61
2023-04-15T13:34:08.668Z,51.92
2023-04-15T13:36:36.109Z,57.86
2023-04-15T13:39:03.765Z,59.51
2023-04-15T13:41:30.853Z,61.96
2023-04-15T13:43:58.815Z,62.63
2023-04-15T13:46:26.454Z,63.19
2023-04-15T13:48:53.863Z,64.23
2023-04-15T13:51:21.040Z,64.96
2023-04-15T13:53:48.324Z,65.49
2023-04-15T13:56:15.571Z,62.30
2023-04-15T13:58:42.854Z,62.53
2023-04-15T14:01:10.068Z,61.18
2023-04-15T14:03:38.370Z,60.85
2023-04-15T14:06:06.735Z,62.37
2023-04-15T14:08:34.446Z,63.21
2023-04-15T14:11:01.589Z,65.93
2023-04-15T14:13:28.807Z,69.79
2023-04-15T14:15:57.623Z,71.74
2023-04-15T14:18:25.090Z,72.93
2023-04-15T14:20:52.266Z,74.07
2023-04-15T14:23:19.478Z,72.51
2023-04-15T14:25:48.270Z,72.14
2023-04-15T14:28:16.261Z,71.05
2023-04-15T14:30:43.982Z,70.59
2023-04-15T14:33:11.432Z,70.27
2023-04-15T14:35:39.360Z,69.70
2023-04-15T14:38:10.855Z,68.01
2023-04-15T14:40:38.412Z,68.98
2023-04-15T14:43:06.318Z,67.79
2023-04-15T14:45:34.754Z,67.61
2023-04-15T14:48:02.678Z,69.21
2023-04-15T14:50:30.087Z,64.91
2023-04-15T14:52:57.221Z,64.50
2023-04-15T14:55:24.328Z,59.64
2023-04-15T14:57:51.476Z,58.01
2023-04-15T15:00:19.607Z,54.14
2023-04-15T15:02:49.145Z,54.43
2023-04-15T15:05:16.622Z,55.06
2023-04-15T15:07:43.979Z,55.56
2023-04-15T15:10:11.124Z,55.92
2023-04-15T15:12:38.200Z,55.41
2023-04-15T15:15:15.469Z,56.49
2023-04-15T15:17:47.462Z,55.06
2023-04-15T15:20:14.888Z,54.58
2023-04-15T15:22:42.124Z,54.19
2023-04-15T15:25:09.348Z,54.35
2023-04-15T15:27:38.217Z,54.46
2023-04-15T15:30:07.085Z,54.51
2023-04-15T15:32:34.555Z,53.60
2023-04-15T15:35:01.825Z,53.50
2023-04-15T15:37:31.163Z,53.16
2023-04-15T15:39:58.318Z,53.66
2023-04-15T15:42:25.726Z,52.77
2023-04-15T15:44:55.594Z,51.58
2023-04-15T15:47:23.313Z,50.46
2023-04-15T15:49:50.576Z,51.30
2023-04-15T15:52:17.695Z,52.19
2023-04-15T15:54:44.757Z,53.30
2023-04-15T15:57:11.923Z,53.45
2023-04-15T15:59:41.388Z,53.64
2023-04-15T16:02:12.852Z,54.13
2023-04-15T16:04:40.952Z,54.47
2023-04-15T16:07:08.124Z,54.92
2023-04-15T16:09:35.673Z,54.85
2023-04-15T16:12:04.071Z,54.39
2023-04-15T16:14:31.388Z,53.59
2023-04-15T16:16:58.525Z,53.68
2023-04-15T16:19:25.694Z,53.41
2023-04-15T16:21:53.083Z,53.27
2023-04-15T16:24:20.297Z,53.05
2023-04-15T16:26:47.599Z,52.94
2023-04-15T16:29:14.853Z,52.58
2023-04-15T16:31:42.445Z,53.11
2023-04-15T16:34:09.966Z,53.33
2023-04-15T16:36:37.152Z,54.72
2023-04-15T16:39:04.738Z,54.92
2023-04-15T16:41:34.316Z,55.67
2023-04-15T16:44:03.579Z,55.82
2023-04-15T16:46:31.166Z,55.83
2023-04-15T16:48:58.583Z,56.40
2023-04-15T16:51:26.661Z,56.86
2023-04-15T16:53:53.833Z,57.23
2023-04-15T16:56:22.221Z,57.30
2023-04-15T16:58:49.527Z,58.06
2023-04-15T17:01:16.745Z,58.47
2023-04-15T17:03:44.090Z,58.76
2023-04-15T17:06:11.337Z,59.01
2023-04-15T17:08:38.639Z,59.89
2023-04-15T17:11:06.613Z,59.76
2023-04-15T17:13:34.573Z,59.88
2023-04-15T17:16:03.137Z,60.16
2023-04-15T17:18:31.575Z,59.85
2023-04-15T17:20:59.781Z,59.74
2023-04-15T17:23:27.812Z,59.67
2023-04-15T17:25:56.683Z,59.34
2023-04-15T17:28:24.453Z,59.20
2023-04-15T17:30:52.184Z,59.65
2023-04-15T17:34:01.042Z,59.92
2023-04-15T17:36:08.028Z,59.93
2023-04-15T17:38:35.560Z,60.05
2023-04-15T17:41:02.850Z,59.52
2023-04-15T17:43:38.717Z,59.94
2023-04-15T17:46:08.019Z,60.65
2023-04-15T17:48:35.639Z,60.89
2023-04-15T17:51:03.074Z,61.56
2023-04-15T17:53:30.273Z,61.56
2023-04-15T17:55:58.665Z,61.95
2023-04-15T17:58:27.642Z,62.57
2023-04-15T18:00:55.089Z,62.69
2023-04-15T18:03:22.909Z,63.10
2023-04-15T18:05:50.932Z,63.44
2023-04-15T18:08:18.352Z,63.84
2023-04-15T18:10:45.606Z,64.37
2023-04-15T18:13:13.016Z,65.29
2023-04-15T18:15:40.395Z,65.25
2023-04-15T18:18:07.505Z,65.22
2023-04-15T18:20:34.829Z,65.93
2023-04-15T18:23:01.961Z,65.88
2023-04-15T18:25:30.189Z,66.25
2023-04-15T18:27:57.433Z,66.60
2023-04-15T18:30:24.596Z,66.88
2023-04-15T18:32:51.856Z,67.12
2023-04-15T18:35:19.183Z,67.16
2023-04-15T18:37:46.342Z,67.36
2023-04-15T18:40:13.540Z,67.52
2023-04-15T18:42:40.768Z,67.75
2023-04-15T18:45:08.350Z,67.63
2023-04-15T18:47:35.620Z,67.99
2023-04-15T18:50:02.912Z,67.93
2023-04-15T18:52:30.679Z,67.95
2023-04-15T18:54:58.087Z,67.95
2023-04-15T18:57:32.365Z,67.91
2023-04-15T19:00:02.968Z,67.46
2023-04-15T19:02:30.394Z,66.98
2023-04-15T19:04:57.694Z,66.88
2023-04-15T19:07:25.280Z,66.63
2023-04-15T19:09:53.512Z,66.25
2023-04-15T19:12:20.811Z,66.18
2023-04-15T19:14:48.356Z,66.30
2023-04-15T19:17:16.098Z,66.47
2023-04-15T19:19:44.254Z,66.15
2023-04-15T19:22:12.423Z,66.32
2023-04-15T19:24:40.856Z,65.94
2023-04-15T19:27:09.578Z,66.25
2023-04-15T19:29:37.215Z,66.22
2023-04-15T19:32:05.867Z,66.24
2023-04-15T19:34:33.155Z,66.23
2023-04-15T19:37:01.084Z,66.27
2023-04-15T19:39:28.492Z,65.96
2023-04-15T19:41:56.114Z,65.97
2023-04-15T19:44:23.176Z,65.80
2023-04-15T19:46:51.696Z,65.62
2023-04-15T19:49:20.633Z,65.94
2023-04-15T19:51:51.222Z,65.75
2023-04-15T19:54:18.742Z,65.87
2023-04-15T19:56:45.994Z,65.82
2023-04-15T19:59:13.169Z,66.12
2023-04-15T20:01:40.621Z,66.52
2023-04-15T20:04:08.067Z,66.57
2023-04-15T20:06:35.432Z,66.39
2023-04-15T20:09:03.119Z,66.53
2023-04-15T20:12:44.873Z,66.10
2023-04-15T20:14:19.313Z,66.38
2023-04-15T20:16:47.019Z,66.44
2023-04-15T20:19:14.875Z,66.42
2023-04-15T20:21:42.515Z,66.67
2023-04-15T20:24:10.037Z,66.58
2023-04-15T20:26:37.550Z,66.52
2023-04-15T20:29:05.449Z,67.00
2023-04-15T20:31:34.156Z,67.18
2023-04-15T20:34:01.442Z,67.44
2023-04-15T20:36:28.770Z,67.12
2023-04-15T20:38:55.933Z,67.42
2023-04-15T20:41:23.406Z,67.12
2023-04-15T20:43:50.579Z,67.03
2023-04-15T20:46:21.473Z,67.54
2023-04-15T20:48:49.186Z,68.21
2023-04-15T20:51:16.688Z,68.45
2023-04-15T20:53:43.749Z,69.21
2023-04-15T20:56:11.077Z,69.96
2023-04-15T20:58:38.866Z,70.58
2023-04-15T21:01:06.368Z,71.00
2023-04-15T21:03:33.746Z,71.40
2023-04-15T21:06:01.132Z,71.77
2023-04-15T21:08:31.718Z,71.96
2023-04-15T21:10:59.482Z,72.72
2023-04-15T21:13:26.751Z,72.93
2023-04-15T21:15:54.559Z,73.23
2023-04-15T21:18:22.579Z,73.44
2023-04-15T21:20:59.413Z,73.77
2023-04-15T21:23:28.888Z,74.12
2023-04-15T21:25:57.002Z,74.13
2023-04-15T21:28:24.257Z,74.44
2023-04-15T21:30:51.390Z,75.02
2023-04-15T21:33:20.451Z,75.42
2023-04-15T21:35:47.433Z,75.65
2023-04-15T21:38:14.924Z,76.06
2023-04-15T21:40:42.034Z,75.94
2023-04-15T21:43:09.497Z,76.04
2023-04-15T21:45:39.464Z,75.82
2023-04-15T21:48:08.127Z,75.55
2023-04-15T21:50:38.915Z,75.64
2023-04-15T21:53:08.316Z,75.74
2023-04-15T21:55:36.237Z,75.61
2023-04-15T21:58:03.546Z,75.58
2023-04-15T22:00:30.764Z,75.47
2023-04-15T22:02:57.975Z,75.58
2023-04-15T22:05:26.251Z,75.35
2023-04-15T22:07:53.440Z,75.58
2023-04-15T22:10:21.057Z,75.87
2023-04-15T22:12:48.099Z,75.96
2023-04-15T22:15:17.002Z,76.18
2023-04-15T22:17:44.148Z,76.32
2023-04-15T22:20:11.413Z,76.37
2023-04-15T22:22:43.941Z,76.73
2023-04-15T22:25:12.167Z,76.92
2023-04-15T22:27:39.269Z,76.96
2023-04-15T22:30:07.221Z,76.87
2023-04-15T22:32:34.349Z,77.37
2023-04-15T22:35:02.507Z,77.33
2023-04-15T22:37:32.095Z,77.01
2023-04-15T22:39:59.754Z,77.13
2023-04-15T22:42:26.801Z,77.14
2023-04-15T22:44:53.863Z,77.16
2023-04-15T22:47:20.975Z,77.14
2023-04-15T22:49:48.278Z,76.98
2023-04-15T22:52:29.407Z,77.07
2023-04-15T22:54:57.913Z,76.62
2023-04-15T22:57:25.171Z,76.37
2023-04-15T22:59:52.247Z,76.19
2023-04-15T23:02:19.700Z,75.38
2023-04-15T23:04:47.100Z,75.27
2023-04-15T23:07:14.338Z,74.37
2023-04-15T23:09:41.519Z,74.04
2023-04-15T23:12:08.552Z,73.76
2023-04-15T23:14:35.856Z,73.52
2023-04-15T23:17:02.890Z,73.68
2023-04-15T23:19:30.126Z,73.67
2023-04-15T23:21:57.227Z,73.31
2023-04-15T23:24:24.502Z,73.70
2023-04-15T23:26:53.177Z,73.80
2023-04-15T23:29:20.559Z,73.82
2023-04-15T23:31:47.671Z,74.04
2023-04-15T23:34:14.997Z,73.96
2023-04-15T23:36:41.987Z,73.60
2023-04-15T23:39:09.395Z,73.56
2023-04-15T23:41:36.776Z,73.68
2023-04-15T23:44:03.966Z,73.93
2023-04-15T23:46:31.208Z,74.11
2023-04-15T23:48:58.282Z,74.26
2023-04-15T23:51:25.541Z,73.95
2023-04-15T23:53:52.573Z,73.97
2023-04-15T23:56:19.861Z,73.95
2023-04-15T23:58:46.932Z,73.66
